Time;durP1;ratioP1;P1;durP2;ratioP2;P2;SDS_P1;SDS_P2;PMS_P1;PMS_P2;Temp;Humidity;BMP_temperature;BMP_pressure;BME280_temperature;BME280_humidity;BME280_pressure;Samples;Min_cycle;Max_cycle;Signal;HPM_P1;HPM_P2
2022/08/20 00:00:18;;;;;;;15.10;9.30;;;;;;;20.53;96.76;101570.91;5008192;28;20108;-52
2022/08/20 00:02:53;;;;;;;14.45;9.35;;;;;;;20.58;97.20;101574.41;5008589;28;20025;-52
2022/08/20 00:05:35;;;;;;;14.23;8.90;;;;;;;20.60;97.31;101579.63;5000637;28;20057;-53
2022/08/20 00:08:02;;;;;;;11.70;9.20;;;;;;;20.55;97.65;101571.78;5001424;28;20040;-53
2022/08/20 00:10:30;;;;;;;14.63;9.32;;;;;;;20.58;97.70;101576.16;4986778;28;20037;-50
2022/08/20 00:12:56;;;;;;;14.93;10.02;;;;;;;20.53;97.94;101563.06;4995448;28;20053;-53
2022/08/20 00:15:25;;;;;;;14.32;10.15;;;;;;;20.53;98.02;101572.66;5003266;28;20025;-51
2022/08/20 00:17:51;;;;;;;14.23;9.73;;;;;;;20.53;97.85;101564.81;5004086;28;20044;-51
2022/08/20 00:20:19;;;;;;;11.27;9.45;;;;;;;20.53;97.55;101565.69;5002186;28;20034;-53
2022/08/20 00:22:45;;;;;;;14.75;9.40;;;;;;;20.53;97.44;101565.69;5005253;28;20108;-53
2022/08/20 00:25:12;;;;;;;11.75;8.52;;;;;;;20.52;97.52;101561.34;5003708;28;20037;-51
2022/08/20 00:27:37;;;;;;;12.05;8.77;;;;;;;20.53;96.95;101562.22;5004588;28;20140;-50
2022/08/20 00:30:09;;;;;;;12.77;8.70;;;;;;;20.53;98.10;101572.66;5004782;28;20117;-48
2022/08/20 00:33:06;;;;;;;12.95;8.60;;;;;;;20.60;97.32;101564.81;5004741;28;20037;-53
2022/08/20 00:35:34;;;;;;;10.80;8.60;;;;;;;20.52;97.04;101560.47;5000801;28;20100;-48
2022/08/20 00:38:00;;;;;;;11.55;8.75;;;;;;;20.55;97.49;101565.69;5006122;28;20396;-53
2022/08/20 00:40:30;;;;;;;11.15;9.02;;;;;;;20.56;97.33;101565.66;5006481;28;20391;-50
2022/08/20 00:42:58;;;;;;;10.75;8.52;;;;;;;20.51;97.30;101567.44;5006081;28;20034;-53
2022/08/20 00:45:26;;;;;;;13.63;9.10;;;;;;;20.50;97.63;101563.06;5003517;28;20065;-49
2022/08/20 00:47:54;;;;;;;11.98;9.00;;;;;;;20.52;97.76;101565.69;5001062;28;20203;-52
2022/08/20 00:50:23;;;;;;;10.75;8.68;;;;;;;20.49;98.00;101561.34;5005946;28;20046;-53
2022/08/20 00:52:50;;;;;;;12.57;8.75;;;;;;;20.50;97.60;101567.44;5004880;28;20772;-49
2022/08/20 00:55:18;;;;;;;13.57;9.80;;;;;;;20.45;97.60;101567.47;5004813;28;20171;-49
2022/08/20 00:57:53;;;;;;;12.88;9.10;;;;;;;20.52;97.83;101568.31;5031647;28;20030;-52
2022/08/20 01:00:39;;;;;;;11.75;9.05;;;;;;;20.51;97.92;101559.63;5006924;28;20437;-52
2022/08/20 01:03:08;;;;;;;12.40;8.95;;;;;;;20.50;98.53;101568.28;5005146;28;20026;-52
2022/08/20 01:05:35;;;;;;;11.68;9.05;;;;;;;20.47;98.28;101559.63;5005773;28;20509;-52
2022/08/20 01:08:02;;;;;;;13.20;9.15;;;;;;;20.48;98.24;101563.97;5004144;28;20034;-53
2022/08/20 01:10:34;;;;;;;14.65;9.48;;;;;;;20.49;98.80;101570.91;5005878;28;20034;-50
2022/08/20 01:13:02;;;;;;;11.05;9.27;;;;;;;20.43;98.09;101555.22;5002591;28;20265;-53
2022/08/20 01:15:30;;;;;;;12.55;8.90;;;;;;;20.47;98.45;101563.09;5003220;28;20045;-52
2022/08/20 01:17:57;;;;;;;13.63;9.63;;;;;;;20.46;98.01;101560.50;5002455;28;20052;-52
2022/08/20 01:21:02;;;;;;;12.95;10.10;;;;;;;20.54;97.62;101564.81;5005266;28;20030;-54
2022/08/20 01:23:38;;;;;;;15.13;9.43;;;;;;;20.47;99.19;101564.84;4982072;28;20198;-50
2022/08/20 01:26:20;;;;;;;12.43;9.88;;;;;;;20.50;98.30;101567.44;4984898;28;20557;-51
2022/08/20 01:29:09;;;;;;;11.35;10.10;;;;;;;20.48;99.27;101571.78;4995098;28;20486;-49
2022/08/20 01:31:38;;;;;;;12.15;9.98;;;;;;;20.42;98.68;101575.25;5001178;28;20022;-51
2022/08/20 01:34:05;;;;;;;;;;;;;;;20.59;97.01;101572.66;5004180;28;20550;-52
2022/08/20 01:36:47;;;;;;;12.77;9.65;;;;;;;20.50;98.67;101564.81;5004879;28;19912;-51
2022/08/20 01:39:18;;;;;;;15.45;10.02;;;;;;;20.43;98.64;101573.50;5007498;28;20076;-53
2022/08/20 01:42:06;;;;;;;13.38;10.32;;;;;;;20.44;98.73;101563.03;5001523;28;20030;-54
2022/08/20 01:44:33;;;;;;;13.38;9.82;;;;;;;20.40;98.67;101561.34;5002537;28;20045;-54
2022/08/20 01:47:12;;;;;;;10.82;9.73;;;;;;;20.41;99.22;101570.03;5004490;28;20544;-51
2022/08/20 01:49:42;;;;;;;12.25;10.00;;;;;;;20.41;99.09;101570.03;5004621;28;20030;-50
2022/08/20 01:52:12;;;;;;;11.15;10.02;;;;;;;20.38;98.48;101564.81;5000471;28;20540;-53
2022/08/20 01:54:38;;;;;;;12.10;9.98;;;;;;;20.37;98.17;101569.16;5003616;28;20120;-54
2022/08/20 01:57:11;;;;;;;11.93;9.35;;;;;;;20.33;98.92;101570.91;4999503;28;20117;-51
2022/08/20 01:59:37;;;;;;;11.52;9.80;;;;;;;20.36;98.68;101570.03;5005284;28;20038;-50
2022/08/20 02:02:03;;;;;;;11.80;10.00;;;;;;;20.35;98.25;101571.78;5005936;28;20030;-51
2022/08/20 02:04:28;;;;;;;12.32;10.25;;;;;;;20.36;98.74;101572.66;5002366;28;20034;-51
2022/08/20 02:06:57;;;;;;;12.43;10.23;;;;;;;20.38;98.53;101576.13;5005253;28;20083;-54
2022/08/20 02:09:27;;;;;;;;;;;;;;;20.51;97.28;101575.28;5000427;28;20486;-52
2022/08/20 02:11:52;;;;;;;11.43;10.00;;;;;;;20.37;98.91;101584.81;5005881;28;19940;-50
2022/08/20 02:14:19;;;;;;;12.52;10.10;;;;;;;20.33;99.03;101581.38;5007144;28;20593;-48
2022/08/20 02:16:45;;;;;;;11.60;9.77;;;;;;;20.35;99.46;101578.75;5002875;28;20044;-52
2022/08/20 02:19:18;;;;;;;11.38;10.18;;;;;;;20.35;99.08;101582.22;5003772;28;20551;-54
2022/08/20 02:21:47;;;;;;;12.85;10.23;;;;;;;20.34;99.20;101579.63;5000981;28;20022;-49
2022/08/20 02:24:13;;;;;;;13.25;11.30;;;;;;;20.31;98.95;101572.63;5004850;28;20026;-48
2022/08/20 02:26:39;;;;;;;12.15;10.73;;;;;;;20.31;98.96;101577.00;5002889;28;20601;-53
2022/08/20 02:29:08;;;;;;;14.80;10.27;;;;;;;20.31;99.60;101583.09;5002169;28;20042;-54
2022/08/20 02:31:34;;;;;;;;;;;;;;;20.47;97.85;101580.50;5002525;28;20064;-53
2022/08/20 02:34:01;;;;;;;13.43;10.85;;;;;;;20.31;99.44;101572.63;5005196;28;19914;-47
2022/08/20 02:36:26;;;;;;;17.10;11.02;;;;;;;20.31;99.43;101567.41;5007823;28;20518;-53
2022/08/20 02:38:52;;;;;;;13.32;11.13;;;;;;;20.29;99.76;101574.41;5007682;28;20038;-54
2022/08/20 02:41:20;;;;;;;16.33;11.80;;;;;;;20.30;99.48;101570.91;5005307;28;20390;-54
2022/08/20 02:43:46;;;;;;;15.40;11.73;;;;;;;20.31;99.36;101577.88;5002589;28;20531;-48
2022/08/20 02:46:14;;;;;;;15.15;11.52;;;;;;;20.30;99.17;101581.34;5004606;28;20368;-54
2022/08/20 02:48:41;;;;;;;17.67;12.23;;;;;;;20.27;99.05;101578.75;5008393;28;20052;-53
2022/08/20 02:51:07;;;;;;;17.30;12.32;;;;;;;20.27;99.15;101586.59;5009434;28;20445;-52
2022/08/20 02:53:36;;;;;;;15.95;11.73;;;;;;;20.30;99.19;101583.97;5005095;28;20038;-48
2022/08/20 02:56:05;;;;;;;15.68;11.77;;;;;;;20.27;99.25;101583.97;5006721;28;20494;-54
2022/08/20 02:58:31;;;;;;;;;;;;;;;20.45;97.71;101579.63;5008015;28;20518;-53
2022/08/20 03:00:57;;;;;;;16.45;12.32;;;;;;;20.27;98.76;101577.91;5008913;28;19921;-52
2022/08/20 03:03:22;;;;;;;16.67;12.90;;;;;;;20.25;99.18;101579.63;5007546;28;20044;-52
2022/08/20 03:05:51;;;;;;;19.23;13.25;;;;;;;20.25;99.08;101580.47;5008468;28;20068;-49
2022/08/20 03:08:16;;;;;;;17.70;12.43;;;;;;;20.25;99.11;101583.09;5009306;28;20765;-53
2022/08/20 03:10:45;;;;;;;20.30;14.50;;;;;;;20.24;98.57;101581.34;5010515;28;20033;-52
2022/08/20 03:13:12;;;;;;;20.55;13.35;;;;;;;20.23;98.71;101578.75;5005258;28;20029;-53
2022/08/20 03:15:40;;;;;;;17.98;13.50;;;;;;;20.23;99.02;101573.53;5007002;28;20037;-53
2022/08/20 03:18:06;;;;;;;21.17;14.10;;;;;;;20.22;98.46;101575.28;5006465;28;20053;-53
2022/08/20 03:20:32;;;;;;;17.58;13.65;;;;;;;20.22;98.41;101575.28;5008961;28;20029;-53
2022/08/20 03:22:57;;;;;;;20.40;14.55;;;;;;;20.19;98.60;101577.88;5009295;28;20027;-51
2022/08/20 03:25:23;;;;;;;23.48;15.80;;;;;;;20.20;98.33;101579.59;5010320;28;20052;-53
2022/08/20 03:27:49;;;;;;;23.58;16.10;;;;;;;20.17;98.50;101581.38;5007613;28;20029;-49
2022/08/20 03:30:15;;;;;;;23.38;16.88;;;;;;;20.14;98.47;101586.56;5008019;28;20045;-48
2022/08/20 03:32:41;;;;;;;23.58;17.27;;;;;;;20.19;98.12;101583.09;5007426;28;20053;-51
2022/08/20 03:35:10;;;;;;;24.58;17.90;;;;;;;20.15;98.27;101586.59;5020359;28;20058;-50
2022/08/20 03:37:35;;;;;;;23.95;18.08;;;;;;;20.13;97.77;101583.09;5004330;28;20093;-53
2022/08/20 03:40:05;;;;;;;26.98;17.15;;;;;;;20.17;98.04;101586.59;5005354;28;20033;-52
2022/08/20 03:42:30;;;;;;;27.95;17.90;;;;;;;20.13;98.29;101588.31;5006154;28;20505;-52
2022/08/20 03:44:56;;;;;;;31.48;17.85;;;;;;;20.16;98.24;101592.69;5005947;28;20034;-53
2022/08/20 03:47:22;;;;;;;30.45;20.20;;;;;;;20.12;98.51;101591.81;5006159;28;20463;-51
2022/08/20 03:49:48;;;;;;;28.67;20.02;;;;;;;20.11;97.92;101590.06;5007513;28;20046;-53
2022/08/20 03:52:14;;;;;;;31.38;19.58;;;;;;;20.13;97.91;101593.53;5004118;28;20069;-52
2022/08/20 03:54:40;;;;;;;26.95;19.73;;;;;;;20.11;98.07;101583.97;5008054;28;20124;-53
2022/08/20 03:57:05;;;;;;;33.08;20.23;;;;;;;20.13;97.84;101587.44;5003790;28;20120;-50
2022/08/20 03:59:31;;;;;;;26.67;20.08;;;;;;;20.04;98.02;101594.41;5006813;28;21009;-53
2022/08/20 04:01:58;;;;;;;32.60;20.50;;;;;;;20.07;97.43;101589.19;5005757;28;20065;-51
2022/08/20 04:04:24;;;;;;;30.77;20.42;;;;;;;20.04;97.42;101590.94;5005805;28;20525;-51
2022/08/20 04:06:50;;;;;;;31.20;20.55;;;;;;;20.02;97.57;101585.72;5005978;28;20057;-53
2022/08/20 04:09:15;;;;;;;32.70;21.00;;;;;;;19.98;97.83;101593.53;5003523;28;20029;-51
2022/08/20 04:11:41;;;;;;;34.15;21.95;;;;;;;19.98;97.68;101601.38;5007694;28;20502;-54
2022/08/20 04:14:07;;;;;;;32.22;21.73;;;;;;;19.97;97.63;101597.03;5008129;28;20037;-54
2022/08/20 04:16:32;;;;;;;32.05;22.42;;;;;;;19.93;97.63;101598.75;5004089;28;20034;-47
2022/08/20 04:18:58;;;;;;;30.35;22.40;;;;;;;19.97;97.43;101608.34;5004547;28;20489;-52
2022/08/20 04:21:23;;;;;;;33.65;22.13;;;;;;;19.94;97.43;101597.88;5007240;28;20034;-51
2022/08/20 04:23:48;;;;;;;36.47;23.30;;;;;;;19.95;97.72;101611.81;5010093;28;20033;-48
2022/08/20 04:26:15;;;;;;;30.98;22.15;;;;;;;19.96;97.47;101606.59;5007535;28;20058;-53
2022/08/20 04:28:40;;;;;;;31.90;22.95;;;;;;;19.94;97.51;101612.66;5005438;28;20121;-50
2022/08/20 04:31:05;;;;;;;30.65;22.80;;;;;;;19.95;97.31;101609.19;5007315;28;20177;-53
2022/08/20 04:33:31;;;;;;;35.90;23.25;;;;;;;19.95;97.40;101615.28;5003458;28;20521;-53
2022/08/20 04:36:01;;;;;;;35.30;23.15;;;;;;;19.95;97.34;101617.03;5005725;28;20494;-51
2022/08/20 04:38:26;;;;;;;39.88;25.27;;;;;;;19.89;96.68;101614.41;5005278;28;20040;-51
2022/08/20 04:40:52;;;;;;;38.42;23.55;;;;;;;19.91;97.04;101623.13;5004481;28;20034;-49
2022/08/20 04:43:19;;;;;;;36.15;23.92;;;;;;;19.88;97.09;101617.88;5004931;28;21410;-52
2022/08/20 04:45:45;;;;;;;38.42;24.40;;;;;;;19.91;96.84;101628.34;5005542;28;20473;-52
2022/08/20 04:48:12;;;;;;;36.40;24.00;;;;;;;19.91;96.56;101628.34;5005415;28;20033;-54
2022/08/20 04:50:38;;;;;;;30.70;23.25;;;;;;;19.88;96.86;101636.16;5006865;28;20068;-52
2022/08/20 04:53:07;;;;;;;38.92;24.60;;;;;;;19.83;96.85;101637.00;5007113;28;20040;-53
2022/08/20 04:55:34;;;;;;;35.47;23.92;;;;;;;19.82;96.91;101639.63;5003868;28;20434;-52
2022/08/20 04:58:05;;;;;;;37.08;24.80;;;;;;;19.87;97.09;101642.25;5001330;28;20034;-52
2022/08/20 05:00:30;;;;;;;33.95;24.67;;;;;;;19.78;97.32;101643.97;5000586;28;20047;-52
2022/08/20 05:02:56;;;;;;;35.95;24.80;;;;;;;19.77;97.05;101650.03;5008766;28;20022;-52
2022/08/20 05:05:21;;;;;;;35.60;25.10;;;;;;;19.72;97.62;101643.09;5002819;28;20033;-49
2022/08/20 05:07:47;;;;;;;41.72;25.90;;;;;;;19.74;96.92;101649.19;5001521;28;20037;-52
2022/08/20 05:10:14;;;;;;;41.45;26.50;;;;;;;19.77;97.01;101651.78;5002023;28;20463;-51
2022/08/20 05:12:41;;;;;;;43.10;26.65;;;;;;;19.70;96.96;101655.25;5002524;28;20041;-53
2022/08/20 05:15:10;;;;;;;39.47;25.08;;;;;;;19.74;96.53;101654.41;5003713;28;20121;-53
2022/08/20 05:17:36;;;;;;;32.13;23.98;;;;;;;19.74;95.89;101650.03;5004277;28;20121;-53
2022/08/20 05:20:02;;;;;;;38.35;24.00;;;;;;;19.70;96.10;101661.34;5004881;28;20029;-48
2022/08/20 05:22:28;;;;;;;37.38;24.20;;;;;;;19.64;95.59;101661.31;5005719;28;20030;-47
2022/08/20 05:24:55;;;;;;;37.78;23.58;;;;;;;19.70;95.76;101657.84;5002461;28;20037;-52
2022/08/20 05:27:25;;;;;;;39.03;22.70;;;;;;;19.66;95.54;101649.16;5007873;28;20049;-53
2022/08/20 05:29:52;;;;;;;38.05;21.95;;;;;;;19.63;96.02;101658.72;5004887;28;20030;-53
2022/08/20 05:32:17;;;;;;;36.50;22.58;;;;;;;19.65;95.53;101665.66;5004364;28;20501;-52
2022/08/20 05:34:42;;;;;;;35.83;22.05;;;;;;;19.62;95.16;101660.44;5004664;28;20041;-53
2022/08/20 05:37:08;;;;;;;33.03;21.42;;;;;;;19.62;95.50;101662.19;4995771;28;20040;-52
2022/08/20 05:39:34;;;;;;;34.03;21.85;;;;;;;19.63;96.12;101669.13;5007135;28;20124;-50
2022/08/20 05:41:59;;;;;;;33.97;21.83;;;;;;;19.61;95.45;101666.53;5003061;28;20121;-52
2022/08/20 05:44:25;;;;;;;37.55;21.08;;;;;;;19.60;95.58;101667.41;5004429;28;20041;-53
2022/08/20 05:46:50;;;;;;;39.15;21.45;;;;;;;19.59;94.91;101664.75;5003729;28;20029;-51
2022/08/20 05:49:19;;;;;;;30.27;20.75;;;;;;;19.61;95.31;101674.34;5003476;28;20038;-53
2022/08/20 05:51:45;;;;;;;34.83;21.92;;;;;;;19.58;95.21;101669.13;5005621;28;20041;-53
2022/08/20 05:54:11;;;;;;;37.20;21.95;;;;;;;19.62;95.83;101673.50;5005202;28;20540;-52
2022/08/20 05:56:38;;;;;;;33.67;21.08;;;;;;;19.61;96.89;101673.50;5006587;28;20040;-52
2022/08/20 05:59:05;;;;;;;35.08;21.98;;;;;;;19.59;95.74;101673.47;5001395;28;20045;-49
2022/08/20 06:01:32;;;;;;;32.55;22.00;;;;;;;19.62;95.77;101675.22;5002306;28;20064;-51
2022/08/20 06:06:42;;;;;;;35.85;21.42;;;;;;;19.67;95.76;101678.72;5005958;28;20098;-51
2022/08/20 06:09:08;;;;;;;30.35;22.13;;;;;;;19.64;95.93;101689.13;5000897;28;20030;-50
2022/08/20 06:11:33;;;;;;;36.30;22.42;;;;;;;19.62;96.37;101681.31;5004143;28;20030;-54
2022/08/20 06:13:59;;;;;;;37.25;22.58;;;;;;;19.66;96.53;101685.69;5003861;28;20038;-53
2022/08/20 06:16:25;;;;;;;40.25;21.80;;;;;;;19.63;96.87;101680.44;5003593;28;20526;-52
2022/08/20 06:18:50;;;;;;;35.60;21.85;;;;;;;19.66;96.19;101679.59;5002539;28;20164;-52
2022/08/20 06:21:16;;;;;;;31.35;22.25;;;;;;;19.63;96.50;101683.06;5002422;28;20487;-50
2022/08/20 06:23:41;;;;;;;36.08;21.65;;;;;;;19.63;96.35;101685.66;5001933;28;20107;-52
2022/08/20 06:26:08;;;;;;;36.50;21.90;;;;;;;19.64;97.02;101679.56;5005629;28;20141;-48
2022/08/20 06:28:33;;;;;;;37.05;21.85;;;;;;;19.68;96.52;101678.72;5004186;28;20041;-46
2022/08/20 06:30:59;;;;;;;35.15;20.73;;;;;;;19.63;95.20;101675.22;5003817;28;20030;-53
2022/08/20 06:33:24;;;;;;;35.33;21.15;;;;;;;19.70;95.84;101684.81;5004421;28;21193;-51
2022/08/20 06:35:50;;;;;;;34.13;21.23;;;;;;;19.69;95.96;101679.59;5005815;28;20121;-50
2022/08/20 06:38:15;;;;;;;34.50;21.15;;;;;;;19.67;96.46;101679.59;5004945;28;20156;-52
2022/08/20 06:40:41;;;;;;;33.72;21.05;;;;;;;19.70;95.67;101683.94;5004333;28;20038;-51
2022/08/20 06:43:07;;;;;;;35.83;21.50;;;;;;;19.71;95.68;101683.94;5001434;28;20694;-53
2022/08/20 06:45:34;;;;;;;37.05;21.30;;;;;;;19.69;96.57;101684.81;5000573;28;20041;-52
2022/08/20 06:48:04;;;;;;;34.65;20.75;;;;;;;19.74;96.44;101686.59;4999683;28;20033;-53
2022/08/20 06:50:38;;;;;;;33.85;20.35;;;;;;;19.78;96.02;101696.16;5001843;28;20054;-53
2022/08/20 06:53:05;;;;;;;31.38;20.75;;;;;;;19.77;97.06;101683.09;5001198;28;20083;-53
2022/08/20 06:55:31;;;;;;;32.55;19.35;;;;;;;19.77;95.18;101689.19;5002604;28;20502;-51
2022/08/20 06:58:03;;;;;;;28.42;20.17;;;;;;;19.79;96.02;101691.81;5000199;28;20394;-52
2022/08/20 07:00:32;;;;;;;26.13;19.95;;;;;;;19.78;96.44;101695.31;4994849;28;20707;-51
2022/08/20 07:02:59;;;;;;;32.63;19.38;;;;;;;19.73;95.64;101687.44;4998956;28;20087;-52
2022/08/20 07:05:26;;;;;;;29.40;19.77;;;;;;;19.80;95.75;101696.16;4999064;28;20038;-50
2022/08/20 07:07:52;;;;;;;28.45;19.13;;;;;;;19.78;95.98;101697.91;5000444;28;20130;-52
2022/08/20 07:10:19;;;;;;;28.92;19.70;;;;;;;19.82;96.81;101697.91;5011016;28;20120;-48
2022/08/20 07:12:45;;;;;;;25.45;17.80;;;;;;;19.86;95.90;101697.94;4999603;28;20041;-50
2022/08/20 07:15:12;;;;;;;28.00;18.40;;;;;;;19.88;95.77;101699.66;4996571;28;20026;-53
2022/08/20 07:17:38;;;;;;;29.40;18.58;;;;;;;19.95;95.84;101711.00;5000005;28;20068;-50
2022/08/20 07:20:09;;;;;;;25.88;18.42;;;;;;;19.98;96.46;101709.28;5000972;28;20034;-52
2022/08/20 07:22:35;;;;;;;31.05;19.35;;;;;;;19.94;95.54;101710.13;5000853;28;20029;-52
2022/08/20 07:25:05;;;;;;;27.38;18.48;;;;;;;19.92;96.16;101708.38;5000546;28;20436;-52
2022/08/20 07:27:31;;;;;;;29.50;18.88;;;;;;;19.92;95.90;101708.38;5002029;28;20096;-54
2022/08/20 07:32:41;;;;;;;29.63;17.33;;;;;;;20.03;95.89;101719.72;5005013;28;20056;-52
2022/08/20 07:35:10;;;;;;;24.55;16.38;;;;;;;20.12;94.59;101724.97;4999844;28;20156;-52
2022/08/20 07:37:40;;;;;;;28.30;15.75;;;;;;;20.32;96.34;101725.91;5001545;28;20494;-50
2022/08/20 07:40:10;;;;;;;21.25;14.88;;;;;;;20.42;93.76;101724.16;5000984;28;20058;-48
2022/08/20 07:42:38;;;;;;;23.88;15.32;;;;;;;20.57;93.14;101728.56;5004812;28;20060;-52
2022/08/20 07:45:05;;;;;;;22.73;14.83;;;;;;;20.73;94.18;101732.91;4999113;28;20087;-48
2022/08/20 07:47:34;;;;;;;22.02;13.63;;;;;;;20.85;92.60;101732.91;5000493;28;20018;-50
2022/08/20 07:50:00;;;;;;;;;;;;;;;20.96;92.69;101740.75;4998266;28;20034;-57
2022/08/20 07:52:25;;;;;;;20.25;13.57;;;;;;;20.87;90.28;101738.16;4999202;28;19983;-52
2022/08/20 07:54:50;;;;;;;19.90;13.30;;;;;;;20.83;90.57;101744.25;4999302;28;20049;-53
2022/08/20 07:57:17;;;;;;;22.27;14.27;;;;;;;20.74;89.98;101747.72;5002085;28;20021;-53
2022/08/20 07:59:43;;;;;;;22.70;13.52;;;;;;;20.71;89.04;101750.34;4999211;28;20058;-52
2022/08/20 08:02:09;;;;;;;22.13;13.32;;;;;;;20.87;89.66;101751.22;4999738;28;20071;-52
2022/08/20 08:04:35;;;;;;;18.08;12.98;;;;;;;20.78;88.85;101759.91;4998432;28;20045;-52
2022/08/20 08:07:01;;;;;;;21.27;14.35;;;;;;;20.79;89.31;101759.03;5001325;28;20033;-49
2022/08/20 08:09:27;;;;;;;22.05;13.63;;;;;;;20.78;89.49;101753.81;4996880;28;20041;-51
2022/08/20 08:11:56;;;;;;;18.27;13.02;;;;;;;20.81;90.19;101762.56;5004348;28;20518;-54
2022/08/20 08:14:25;;;;;;;20.27;13.25;;;;;;;20.94;90.21;101754.69;5002158;28;20041;-51
2022/08/20 08:16:57;;;;;;;19.05;12.15;;;;;;;21.03;88.78;101762.53;4998108;28;20045;-48
2022/08/20 08:19:25;;;;;;;20.88;11.10;;;;;;;21.11;87.50;101760.75;5002776;28;20490;-54
2022/08/20 08:21:50;;;;;;;14.70;10.50;;;;;;;21.19;86.07;101768.63;5004913;28;20060;-51
2022/08/20 08:24:19;;;;;;;16.00;11.00;;;;;;;21.30;89.57;101773.00;5001643;28;20042;-50
2022/08/20 08:26:44;;;;;;;;;;;;;;;21.42;87.98;101770.34;5000802;28;20128;-53
2022/08/20 08:29:10;;;;;;;16.17;11.15;;;;;;;21.31;86.20;101772.13;5004247;28;20016;-52
2022/08/20 08:31:36;;;;;;;17.55;10.73;;;;;;;21.34;86.65;101769.47;5003100;28;20119;-50
2022/08/20 08:34:02;;;;;;;13.13;9.70;;;;;;;21.35;85.72;101765.13;5003963;28;20466;-51
2022/08/20 08:36:27;;;;;;;13.35;9.20;;;;;;;21.38;84.39;101768.59;5008386;28;20509;-49
2022/08/20 08:38:54;;;;;;;13.18;8.90;;;;;;;21.49;82.89;101770.34;5006905;28;20545;-51
2022/08/20 08:41:30;;;;;;;14.20;9.02;;;;;;;21.59;85.09;101767.66;5002287;28;20038;-54
2022/08/20 08:44:20;;;;;;;16.13;8.50;;;;;;;21.59;82.29;101777.28;4999949;28;20026;-54
2022/08/20 08:46:48;;;;;;;13.48;8.25;;;;;;;21.69;82.38;101779.84;5005206;28;20120;-51
2022/08/20 08:49:19;;;;;;;16.67;9.53;;;;;;;21.77;83.50;101782.44;5003809;28;20034;-51
2022/08/20 08:51:50;;;;;;;16.00;9.50;;;;;;;21.77;82.75;101782.44;5006367;28;20112;-51
2022/08/20 08:54:18;;;;;;;18.35;10.05;;;;;;;21.79;82.11;101780.72;5005773;28;20038;-53
2022/08/20 08:56:45;;;;;;;21.10;9.20;;;;;;;21.87;82.53;101789.41;5009281;28;20036;-52
2022/08/20 08:59:10;;;;;;;14.40;9.00;;;;;;;21.91;82.28;101785.91;4995101;28;20038;-51
2022/08/20 09:01:45;;;;;;;13.40;9.50;;;;;;;21.96;81.59;101791.09;4996863;28;20072;-53
2022/08/20 09:04:12;;;;;;;14.45;9.45;;;;;;;22.01;78.66;101786.72;4999374;28;20095;-49
2022/08/20 09:06:39;;;;;;;14.98;8.30;;;;;;;22.03;78.44;101790.22;4994957;28;20470;-52
2022/08/20 09:09:09;;;;;;;17.48;9.70;;;;;;;22.08;80.36;101793.66;5000203;28;20041;-51
2022/08/20 09:11:47;;;;;;;15.05;9.98;;;;;;;22.17;81.45;101790.16;4998533;28;20037;-51
2022/08/20 09:14:13;;;;;;;15.73;9.32;;;;;;;22.25;79.98;101785.75;5000202;28;20030;-53
2022/08/20 09:16:39;;;;;;;12.63;7.18;;;;;;;22.26;77.45;101781.38;4999087;28;20049;-51
2022/08/20 09:19:04;;;;;;;11.23;7.13;;;;;;;22.29;77.03;101790.09;4997999;28;20036;-51
2022/08/20 09:21:29;;;;;;;13.45;7.88;;;;;;;22.36;77.46;101791.81;4989136;28;20120;-50
2022/08/20 09:23:54;;;;;;;12.32;7.15;;;;;;;22.37;74.39;101788.31;4993804;28;20077;-52
2022/08/20 09:26:20;;;;;;;13.55;6.90;;;;;;;22.44;76.19;101784.75;4992599;28;20133;-51
2022/08/20 09:28:45;;;;;;;10.88;7.22;;;;;;;22.46;76.97;101787.38;4993512;28;20042;-51
2022/08/20 09:31:11;;;;;;;16.42;7.60;;;;;;;22.46;77.37;101780.41;4995502;28;20025;-50
2022/08/20 09:33:36;;;;;;;13.73;7.63;;;;;;;22.55;75.35;101782.06;4993476;28;20053;-51
2022/08/20 09:36:02;;;;;;;12.27;8.15;;;;;;;22.62;76.95;101783.75;4992774;28;20049;-49
2022/08/20 09:38:28;;;;;;;13.38;7.80;;;;;;;22.63;79.58;101782.00;4992205;28;20442;-52
2022/08/20 09:40:54;;;;;;;13.13;7.70;;;;;;;22.68;76.46;101780.22;4990357;28;20041;-52
2022/08/20 09:43:19;;;;;;;13.57;7.70;;;;;;;22.71;77.16;101769.72;4993241;28;20037;-53
2022/08/20 09:45:45;;;;;;;14.02;7.07;;;;;;;22.72;76.00;101777.56;5024182;28;20036;-54
2022/08/20 09:48:10;;;;;;;13.52;7.00;;;;;;;22.77;75.16;101776.69;5000062;28;20180;-53
2022/08/20 09:50:39;;;;;;;15.15;8.02;;;;;;;22.86;75.66;101777.47;5000244;28;20125;-53
2022/08/20 09:53:05;;;;;;;15.35;7.65;;;;;;;22.85;73.56;101772.22;5001106;28;20475;-51
2022/08/20 09:55:33;;;;;;;14.27;6.60;;;;;;;22.90;73.15;101776.59;5000959;28;20041;-50
2022/08/20 09:58:01;;;;;;;12.93;6.72;;;;;;;22.96;73.84;101773.06;4999384;28;20095;-54
2022/08/20 10:00:26;;;;;;;10.40;5.10;;;;;;;22.96;73.64;101773.06;5001614;28;20075;-53
2022/08/20 10:02:52;;;;;;;10.43;5.03;;;;;;;23.05;72.57;101772.09;5001398;28;20038;-51
2022/08/20 10:05:17;;;;;;;11.93;5.22;;;;;;;23.09;74.18;101769.44;5001988;28;20025;-52
2022/08/20 10:07:43;;;;;;;14.43;5.28;;;;;;;23.17;70.22;101771.97;5000089;28;20034;-51
2022/08/20 10:10:11;;;;;;;9.57;3.95;;;;;;;23.22;70.94;101770.19;5001055;28;20049;-53
2022/08/20 10:12:37;;;;;;;7.35;2.58;;;;;;;23.18;66.59;101777.22;5001542;28;20034;-50
2022/08/20 10:15:03;;;;;;;8.63;2.13;;;;;;;23.21;62.69;101773.69;5000586;28;20033;-53
2022/08/20 10:17:29;;;;;;;7.80;2.03;;;;;;;23.23;62.08;101771.91;5001609;28;20033;-52
2022/08/20 10:19:54;;;;;;;10.45;2.40;;;;;;;23.23;62.68;101777.16;4998725;28;20026;-52
2022/08/20 10:22:19;;;;;;;7.03;2.00;;;;;;;23.30;64.55;101778.88;5001037;28;20394;-53
2022/08/20 10:24:45;;;;;;;7.47;2.00;;;;;;;23.31;62.32;101771.84;5001664;28;20124;-50
2022/08/20 10:27:10;;;;;;;7.57;2.25;;;;;;;23.35;60.06;101777.03;5002027;28;20057;-54
2022/08/20 10:29:36;;;;;;;8.40;2.20;;;;;;;23.40;61.28;101775.25;5000406;28;20406;-51
2022/08/20 10:32:14;;;;;;;8.88;2.42;;;;;;;23.40;62.38;101775.25;4999633;28;20057;-53
2022/08/20 10:34:41;;;;;;;10.90;2.20;;;;;;;23.38;61.99;101771.78;5004935;28;20030;-52
2022/08/20 10:37:07;;;;;;;9.48;2.45;;;;;;;23.47;61.05;101786.53;5000722;28;20029;-52
2022/08/20 10:39:33;;;;;;;10.52;2.30;;;;;;;23.51;61.58;101780.38;4999704;28;20038;-48
2022/08/20 10:41:59;;;;;;;9.18;2.10;;;;;;;23.50;58.78;101776.88;5000831;28;20402;-52
2022/08/20 10:44:24;;;;;;;7.38;2.28;;;;;;;23.51;58.82;101777.75;4999948;28;20033;-54
2022/08/20 10:46:50;;;;;;;9.27;2.38;;;;;;;23.52;58.26;101790.84;4999570;28;20065;-53
2022/08/20 10:49:15;;;;;;;10.20;2.20;;;;;;;23.56;56.96;101791.69;4998403;28;20068;-53
2022/08/20 10:51:40;;;;;;;8.40;2.38;;;;;;;23.59;58.86;101790.78;5000528;28;20080;-51
2022/08/20 10:54:06;;;;;;;9.00;2.22;;;;;;;23.61;57.95;101781.16;5001979;28;20422;-54
2022/08/20 10:56:31;;;;;;;11.65;2.53;;;;;;;23.64;59.49;101789.00;5002272;28;20108;-53
2022/08/20 10:58:56;;;;;;;6.40;2.05;;;;;;;23.74;60.68;101785.41;4997454;28;20117;-52
2022/08/20 11:01:22;;;;;;;10.13;2.20;;;;;;;23.69;59.90;101779.34;4999254;28;20038;-51
2022/08/20 11:03:48;;;;;;;9.38;2.28;;;;;;;23.70;57.90;101779.31;5000302;28;20033;-51
2022/08/20 11:06:13;;;;;;;9.38;2.33;;;;;;;23.77;57.96;101788.84;5000360;28;20152;-54
2022/08/20 11:08:38;;;;;;;10.95;2.10;;;;;;;23.84;58.15;101786.16;5002983;28;20470;-53
2022/08/20 11:11:05;;;;;;;8.18;2.00;;;;;;;23.82;58.46;101788.81;5003834;28;20054;-54
2022/08/20 11:13:32;;;;;;;11.32;2.33;;;;;;;23.87;59.65;101784.38;4997516;28;20433;-51
2022/08/20 11:15:57;;;;;;;7.40;2.00;;;;;;;23.84;55.02;101787.00;5000968;28;20029;-51
2022/08/20 11:18:22;;;;;;;6.55;2.00;;;;;;;23.87;55.77;101784.38;5002912;28;20053;-54
2022/08/20 11:20:48;;;;;;;5.50;1.90;;;;;;;23.83;53.43;101780.03;5004621;28;20018;-54